Hooker, South Dakota
Current Conditions -  °F | °C
As of 1:35 AM on Thursday 18 Dec 2014 (Local Time) from KYKN Reporting Station
Overcast Overcast  
Wind Chill: 19°   Ceiling: 7000
Heat Index: 19°   Visibility: 10mi
Dew Point: 14°   Wind: 3mph
Humidity: 80%   Direction: 100°E
Pressure: 30.25"   Gusts: NA
Location:  43.1951°N, 97.1515°W
Report Text: KYKN 180735Z AUTO 10003KT 10SM OVC070 M07/M10 A3025 RMK AO1
Loading
Personal Weather Stations






























Interactive Weather Map New forecast layout! Learn more

10-Day Weather Forecast

Advertisements
Track Severe Weather on mobile